Time;durP1;ratioP1;P1;durP2;ratioP2;P2;SDS_P1;SDS_P2;PMS_P1;PMS_P2;Temp;Humidity;BMP_temperature;BMP_pressure;BME280_temperature;BME280_humidity;BME280_pressure;Samples;Min_cycle;Max_cycle;Signal;HPM_P1;HPM_P2
2023/08/01 04:51:39;;;;;;;2.58;2.38;;;;;;;;;;4997258;28;20225;-71
2023/08/01 04:54:06;;;;;;;3.05;2.40;;;;;;;;;;4997415;28;20251;-70
2023/08/01 04:56:33;;;;;;;2.88;2.63;;;;;;;;;;4997106;28;20206;-69
2023/08/01 04:59:01;;;;;;;2.20;2.00;;;;;;;;;;4996974;28;20597;-74
2023/08/01 05:01:28;;;;;;;3.58;2.42;;;;;;;;;;4997464;28;20294;-70
2023/08/01 05:03:55;;;;;;;2.45;2.30;;;;;;;;;;4997004;28;20568;-72
2023/08/01 05:06:22;;;;;;;3.47;2.83;;;;;;;;;;4996841;28;20675;-73
2023/08/01 05:08:51;;;;;;;4.35;2.80;;;;;;;;;;4996763;28;20253;-72
2023/08/01 05:11:18;;;;;;;4.05;2.72;;;;;;;;;;4996510;28;20569;-72
2023/08/01 05:13:45;;;;;;;3.20;2.80;;;;;;;;;;4996776;28;20206;-72
2023/08/01 05:16:12;;;;;;;2.33;2.20;;;;;;;;;;4996838;28;20243;-72
2023/08/01 05:18:39;;;;;;;4.15;3.00;;;;;;;;;;4996696;28;20241;-73
2023/08/01 05:21:06;;;;;;;4.35;3.13;;;;;;;;;;4997497;28;20202;-79
2023/08/01 05:23:33;;;;;;;3.40;3.00;;;;;;;;;;4997552;28;20276;-76
2023/08/01 05:26:01;;;;;;;2.60;2.40;;;;;;;;;;4996377;28;20578;-76
2023/08/01 05:28:28;;;;;;;2.75;2.55;;;;;;;;;;4996474;28;20574;-76
2023/08/01 05:30:56;;;;;;;3.00;2.70;;;;;;;;;;4996627;28;20202;-76
2023/08/01 05:33:23;;;;;;;3.45;2.80;;;;;;;;;;4997748;28;20542;-76
2023/08/01 05:35:50;;;;;;;3.90;3.28;;;;;;;;;;4996497;28;20199;-76
2023/08/01 05:38:17;;;;;;;3.45;3.15;;;;;;;;;;4996433;28;20249;-75
2023/08/01 05:40:44;;;;;;;3.63;3.33;;;;;;;;;;4995978;28;20573;-75
2023/08/01 05:43:12;;;;;;;3.50;3.20;;;;;;;;;;4996229;28;20221;-75
2023/08/01 05:45:39;;;;;;;3.45;3.25;;;;;;;;;;4996286;28;20202;-75
2023/08/01 05:48:06;;;;;;;3.42;3.22;;;;;;;;;;4996065;28;20215;-75
2023/08/01 05:50:33;;;;;;;3.15;2.88;;;;;;;;;;4996148;28;20198;-75
2023/08/01 05:53:01;;;;;;;3.25;2.97;;;;;;;;;;4995710;28;20198;-75
2023/08/01 05:55:28;;;;;;;3.28;3.08;;;;;;;;;;4995988;28;20670;-75
2023/08/01 05:57:55;;;;;;;3.45;2.88;;;;;;;;;;4996641;28;20207;-75
2023/08/01 06:00:24;;;;;;;3.75;3.40;;;;;;;;;;4996684;28;20223;-76
2023/08/01 06:02:51;;;;;;;3.50;3.30;;;;;;;;;;4996997;28;20257;-76
2023/08/01 06:05:18;;;;;;;3.30;3.00;;;;;;;;;;4995513;28;20575;-75
2023/08/01 06:07:46;;;;;;;3.42;3.13;;;;;;;;;;4996769;28;20205;-76
2023/08/01 06:10:14;;;;;;;2.92;2.72;;;;;;;;;;4998755;28;20289;-76
2023/08/01 06:12:41;;;;;;;3.17;2.97;;;;;;;;;;4997830;28;20198;-76
2023/08/01 06:15:08;;;;;;;3.78;2.85;;;;;;;;;;4998468;28;20613;-76
2023/08/01 06:17:37;;;;;;;3.20;2.92;;;;;;;;;;4998262;28;20203;-74
2023/08/01 06:20:05;;;;;;;2.72;2.53;;;;;;;;;;4995578;28;20259;-76
2023/08/01 06:22:32;;;;;;;3.35;2.92;;;;;;;;;;4998834;28;20250;-76
2023/08/01 06:24:59;;;;;;;3.90;2.83;;;;;;;;;;4999180;28;20210;-76
2023/08/01 06:27:26;;;;;;;2.58;2.38;;;;;;;;;;4996348;28;20207;-76
2023/08/01 06:29:53;;;;;;;3.90;2.45;;;;;;;;;;4995241;28;20238;-76
2023/08/01 06:32:20;;;;;;;3.15;2.85;;;;;;;;;;4995540;28;20555;-76
2023/08/01 06:34:48;;;;;;;2.35;2.25;;;;;;;;;;4995146;28;20701;-76
2023/08/01 06:37:15;;;;;;;2.60;2.40;;;;;;;;;;4995310;28;20199;-76
2023/08/01 06:39:42;;;;;;;3.03;2.72;;;;;;;;;;4995091;28;20230;-76
2023/08/01 06:42:09;;;;;;;3.20;2.75;;;;;;;;;;4995181;28;20207;-77
2023/08/01 06:44:36;;;;;;;4.90;3.00;;;;;;;;;;4995279;28;20203;-77
2023/08/01 06:47:04;;;;;;;3.22;2.92;;;;;;;;;;4995757;28;20199;-76
2023/08/01 06:49:31;;;;;;;3.45;3.10;;;;;;;;;;4994971;28;20223;-76
2023/08/01 06:51:59;;;;;;;3.35;3.05;;;;;;;;;;4994936;28;20301;-76
2023/08/01 06:54:26;;;;;;;3.95;3.47;;;;;;;;;;4995131;28;20217;-76
2023/08/01 06:56:53;;;;;;;4.05;3.60;;;;;;;;;;4994782;28;20678;-76
2023/08/01 06:59:20;;;;;;;4.00;3.70;;;;;;;;;;4994886;28;20222;-76
2023/08/01 07:01:47;;;;;;;4.07;3.65;;;;;;;;;;4994575;28;20662;-76
2023/08/01 07:04:15;;;;;;;4.30;3.85;;;;;;;;;;4994093;28;20211;-76
2023/08/01 07:06:42;;;;;;;4.10;3.70;;;;;;;;;;4994950;28;20199;-76
2023/08/01 07:09:10;;;;;;;4.20;3.80;;;;;;;;;;4994678;28;20246;-76
2023/08/01 07:11:37;;;;;;;3.72;3.42;;;;;;;;;;4994683;28;20202;-76
2023/08/01 07:14:05;;;;;;;4.68;4.28;;;;;;;;;;4994634;28;20226;-77
2023/08/01 07:16:32;;;;;;;4.72;4.20;;;;;;;;;;4994684;28;20207;-76
2023/08/01 07:19:02;;;;;;;4.25;3.70;;;;;;;;;;4994255;28;20590;-76
2023/08/01 07:21:29;;;;;;;4.90;4.32;;;;;;;;;;4994864;28;20197;-76
2023/08/01 07:23:57;;;;;;;4.03;3.60;;;;;;;;;;4994753;28;20202;-76
2023/08/01 07:26:28;;;;;;;4.05;3.75;;;;;;;;;;4994187;28;20662;-76
2023/08/01 07:28:55;;;;;;;4.65;4.22;;;;;;;;;;4994254;28;20724;-76
2023/08/01 07:31:22;;;;;;;4.32;3.92;;;;;;;;;;4994465;28;20217;-76
2023/08/01 07:33:49;;;;;;;5.47;4.85;;;;;;;;;;4994698;28;20210;-76
2023/08/01 07:36:16;;;;;;;5.95;4.20;;;;;;;;;;4994315;28;20213;-76
2023/08/01 07:38:43;;;;;;;4.30;3.90;;;;;;;;;;4994281;28;20232;-76
2023/08/01 07:41:11;;;;;;;6.20;4.68;;;;;;;;;;4994391;28;20202;-76
2023/08/01 07:43:39;;;;;;;4.18;3.78;;;;;;;;;;4994275;28;20194;-76
2023/08/01 07:46:08;;;;;;;4.45;4.03;;;;;;;;;;4994264;28;20210;-76
2023/08/01 07:48:35;;;;;;;4.00;3.63;;;;;;;;;;4994133;28;20712;-76
2023/08/01 07:51:03;;;;;;;4.22;3.83;;;;;;;;;;4993850;28;20206;-76
2023/08/01 07:53:30;;;;;;;4.20;3.78;;;;;;;;;;4994296;28;20202;-76
2023/08/01 07:55:57;;;;;;;3.90;3.60;;;;;;;;;;4994323;28;20218;-76
2023/08/01 07:58:24;;;;;;;3.95;3.65;;;;;;;;;;4994139;28;20250;-76
2023/08/01 08:00:53;;;;;;;4.00;3.45;;;;;;;;;;4994314;28;20569;-76
2023/08/01 08:03:22;;;;;;;4.47;4.00;;;;;;;;;;4993962;28;20654;-77
2023/08/01 08:05:49;;;;;;;3.70;3.40;;;;;;;;;;4994573;28;20214;-77
2023/08/01 08:08:16;;;;;;;3.40;3.15;;;;;;;;;;4994053;28;20207;-76
2023/08/01 08:10:43;;;;;;;3.20;3.00;;;;;;;;;;4994260;28;20230;-77
2023/08/01 08:13:10;;;;;;;3.50;3.20;;;;;;;;;;4994185;28;20226;-76
2023/08/01 08:15:37;;;;;;;3.95;3.55;;;;;;;;;;4996558;28;20700;-75
2023/08/01 08:18:05;;;;;;;3.38;3.10;;;;;;;;;;4998221;28;20203;-75
2023/08/01 08:20:32;;;;;;;3.47;3.17;;;;;;;;;;4997992;28;20203;-75
2023/08/01 08:22:59;;;;;;;4.00;3.70;;;;;;;;;;4997668;28;20693;-75
2023/08/01 08:25:26;;;;;;;3.47;3.22;;;;;;;;;;4997883;28;20260;-75
2023/08/01 08:27:53;;;;;;;3.42;3.13;;;;;;;;;;4997828;28;20211;-75
2023/08/01 08:30:21;;;;;;;3.65;3.35;;;;;;;;;;4997632;28;20226;-74
2023/08/01 08:32:48;;;;;;;3.53;3.25;;;;;;;;;;4997776;28;20210;-73
2023/08/01 08:35:16;;;;;;;6.50;3.95;;;;;;;;;;4997724;28;20198;-72
2023/08/01 08:37:43;;;;;;;3.85;3.35;;;;;;;;;;4997700;28;20218;-72
2023/08/01 08:40:11;;;;;;;3.20;3.00;;;;;;;;;;4997616;28;20221;-72
2023/08/01 08:42:38;;;;;;;3.05;2.85;;;;;;;;;;4997651;28;20207;-74
2023/08/01 08:45:07;;;;;;;3.47;2.92;;;;;;;;;;4997784;28;20203;-74
2023/08/01 08:47:37;;;;;;;3.20;2.90;;;;;;;;;;4997927;28;20202;-75
2023/08/01 08:50:05;;;;;;;2.60;2.40;;;;;;;;;;4997291;28;20235;-75
2023/08/01 08:52:33;;;;;;;2.97;2.67;;;;;;;;;;4997381;28;20218;-75
2023/08/01 08:55:01;;;;;;;3.33;2.83;;;;;;;;;;4997451;28;20203;-74
2023/08/01 08:57:28;;;;;;;3.22;3.00;;;;;;;;;;4997606;28;20209;-74
2023/08/01 08:59:55;;;;;;;2.72;2.63;;;;;;;;;;4997215;28;20253;-74
2023/08/01 09:02:23;;;;;;;3.80;3.50;;;;;;;;;;4997521;28;20210;-74
2023/08/01 09:04:50;;;;;;;3.55;3.25;;;;;;;;;;4997418;28;20187;-73
2023/08/01 09:07:19;;;;;;;3.35;3.15;;;;;;;;;;4997430;28;20198;-74
2023/08/01 09:09:48;;;;;;;4.00;3.10;;;;;;;;;;4997287;28;20223;-74
2023/08/01 09:12:15;;;;;;;4.15;3.03;;;;;;;;;;4997389;28;20213;-74
2023/08/01 09:14:42;;;;;;;3.47;3.17;;;;;;;;;;4997287;28;20207;-73
2023/08/01 09:17:09;;;;;;;3.42;3.22;;;;;;;;;;4997209;28;20585;-73
2023/08/01 09:19:36;;;;;;;2.78;2.58;;;;;;;;;;4996655;28;20586;-73
2023/08/01 09:22:03;;;;;;;2.78;2.58;;;;;;;;;;4997191;28;20187;-73
2023/08/01 09:24:31;;;;;;;3.20;2.90;;;;;;;;;;4997001;28;20213;-73
2023/08/01 09:27:05;;;;;;;2.78;2.58;;;;;;;;;;4996399;28;20203;-73
2023/08/01 09:29:32;;;;;;;2.20;2.10;;;;;;;;;;4996765;28;20269;-75
2023/08/01 09:31:59;;;;;;;2.15;2.00;;;;;;;;;;4996801;28;20210;-73
2023/08/01 09:34:27;;;;;;;2.03;1.92;;;;;;;;;;4996832;28;20674;-74
2023/08/01 09:36:59;;;;;;;2.28;2.13;;;;;;;;;;4996662;28;20217;-74
2023/08/01 09:39:26;;;;;;;1.70;1.70;;;;;;;;;;4996598;28;20230;-74
2023/08/01 09:41:56;;;;;;;1.80;1.80;;;;;;;;;;4996796;28;20209;-74
2023/08/01 09:44:26;;;;;;;1.50;1.50;;;;;;;;;;4996772;28;20671;-74
2023/08/01 09:46:57;;;;;;;1.27;1.27;;;;;;;;;;4997083;28;20257;-73
2023/08/01 09:49:24;;;;;;;2.30;1.48;;;;;;;;;;4996363;28;20230;-75
2023/08/01 09:51:52;;;;;;;1.27;1.27;;;;;;;;;;4996343;28;20214;-76
2023/08/01 09:54:20;;;;;;;1.30;1.20;;;;;;;;;;4996630;28;20206;-76
2023/08/01 09:56:48;;;;;;;1.45;1.35;;;;;;;;;;4996509;28;20199;-77
2023/08/01 09:59:18;;;;;;;1.15;1.15;;;;;;;;;;4996259;28;20230;-76
2023/08/01 10:01:48;;;;;;;1.00;1.00;;;;;;;;;;4996794;28;20209;-76
2023/08/01 10:04:16;;;;;;;1.20;1.15;;;;;;;;;;5001732;28;20566;-75
2023/08/01 10:06:44;;;;;;;0.88;0.88;;;;;;;;;;4998802;28;20209;-75
2023/08/01 10:09:13;;;;;;;1.20;1.10;;;;;;;;;;4995738;28;20740;-75
2023/08/01 10:11:40;;;;;;;0.98;0.90;;;;;;;;;;4995971;28;20222;-75
2023/08/01 10:14:08;;;;;;;0.98;0.98;;;;;;;;;;4995960;28;20206;-76
2023/08/01 10:16:36;;;;;;;1.02;0.93;;;;;;;;;;4995575;28;20577;-75
2023/08/01 10:19:04;;;;;;;0.80;0.80;;;;;;;;;;4995647;28;20219;-76
2023/08/01 10:21:31;;;;;;;0.80;0.80;;;;;;;;;;4995362;28;20682;-76
2023/08/01 10:24:00;;;;;;;0.80;0.80;;;;;;;;;;4995721;28;20206;-76
2023/08/01 10:26:27;;;;;;;0.60;0.60;;;;;;;;;;4995414;28;20697;-77
2023/08/01 10:28:54;;;;;;;0.82;0.82;;;;;;;;;;4995897;28;20233;-76
2023/08/01 10:31:22;;;;;;;0.90;0.90;;;;;;;;;;4995483;28;20211;-76
2023/08/01 10:33:50;;;;;;;0.70;0.70;;;;;;;;;;4995225;28;20712;-77
2023/08/01 10:36:19;;;;;;;0.77;0.77;;;;;;;;;;4995290;28;20198;-77
2023/08/01 10:38:47;;;;;;;0.68;0.68;;;;;;;;;;4994268;28;20226;-76
2023/08/01 10:41:21;;;;;;;0.80;0.80;;;;;;;;;;4995357;28;20198;-77
2023/08/01 10:43:48;;;;;;;0.98;0.98;;;;;;;;;;4995271;28;20701;-77
2023/08/01 10:46:15;;;;;;;0.95;0.95;;;;;;;;;;4995298;28;20206;-76
2023/08/01 10:48:53;;;;;;;0.65;0.65;;;;;;;;;;4995959;28;20218;-77
2023/08/01 10:51:21;;;;;;;0.80;0.80;;;;;;;;;;4996349;28;20724;-77
2023/08/01 10:53:48;;;;;;;0.70;0.70;;;;;;;;;;4996599;28;20202;-77
2023/08/01 10:56:19;;;;;;;0.70;0.70;;;;;;;;;;4996584;28;20627;-78
2023/08/01 10:58:47;;;;;;;0.75;0.70;;;;;;;;;;4995884;28;20218;-76
2023/08/01 11:01:14;;;;;;;0.90;0.90;;;;;;;;;;4996266;28;20527;-77
2023/08/01 11:03:42;;;;;;;0.60;0.60;;;;;;;;;;4995486;28;20669;-76
2023/08/01 11:06:09;;;;;;;0.55;0.55;;;;;;;;;;4996210;28;20202;-74
2023/08/01 11:08:37;;;;;;;1.90;0.65;;;;;;;;;;4994419;28;20732;-74
2023/08/01 11:11:05;;;;;;;0.57;0.57;;;;;;;;;;4994386;28;20222;-74
2023/08/01 11:13:34;;;;;;;0.75;0.75;;;;;;;;;;4994815;28;20203;-73
2023/08/01 11:16:02;;;;;;;0.75;0.75;;;;;;;;;;4994702;28;20209;-73
2023/08/01 11:18:29;;;;;;;0.50;0.50;;;;;;;;;;4994353;28;20654;-73
2023/08/01 11:20:56;;;;;;;0.60;0.60;;;;;;;;;;4994407;28;20198;-73
2023/08/01 11:23:29;;;;;;;0.70;0.70;;;;;;;;;;4994279;28;20205;-73
2023/08/01 11:25:57;;;;;;;0.90;0.68;;;;;;;;;;4994736;28;20256;-73
2023/08/01 11:28:24;;;;;;;0.50;0.50;;;;;;;;;;4994103;28;20225;-74
2023/08/01 11:30:52;;;;;;;0.57;0.57;;;;;;;;;;4994342;28;20217;-74
2023/08/01 11:33:21;;;;;;;0.80;0.80;;;;;;;;;;4994433;28;20256;-74
2023/08/01 11:35:48;;;;;;;0.60;0.60;;;;;;;;;;4994419;28;20202;-74
2023/08/01 11:38:15;;;;;;;0.90;0.80;;;;;;;;;;4994019;28;20558;-74
2023/08/01 11:40:42;;;;;;;0.60;0.60;;;;;;;;;;4994496;28;20198;-73
2023/08/01 11:43:10;;;;;;;0.60;0.60;;;;;;;;;;4994110;28;20206;-74
2023/08/01 11:45:38;;;;;;;0.70;0.70;;;;;;;;;;4994362;28;20571;-73
2023/08/01 11:48:05;;;;;;;0.70;0.70;;;;;;;;;;4993922;28;20686;-73
2023/08/01 11:50:32;;;;;;;0.70;0.70;;;;;;;;;;4993528;28;20218;-74
2023/08/01 11:52:59;;;;;;;0.80;0.80;;;;;;;;;;4994282;28;20198;-73
2023/08/01 11:55:27;;;;;;;0.70;0.70;;;;;;;;;;4993875;28;20201;-73
2023/08/01 11:57:58;;;;;;;0.80;0.80;;;;;;;;;;4994509;28;20297;-73
2023/08/01 12:00:28;;;;;;;0.90;0.90;;;;;;;;;;4994027;28;20213;-74
2023/08/01 12:03:04;;;;;;;0.73;0.73;;;;;;;;;;4994327;28;20218;-74
2023/08/01 12:05:32;;;;;;;0.85;0.85;;;;;;;;;;4994057;28;20630;-73
2023/08/01 12:08:09;;;;;;;1.08;0.80;;;;;;;;;;4994677;28;20193;-73
2023/08/01 12:10:38;;;;;;;0.80;0.80;;;;;;;;;;4994328;28;20206;-73
2023/08/01 12:13:05;;;;;;;0.73;0.73;;;;;;;;;;4994173;28;20205;-73
2023/08/01 12:15:34;;;;;;;0.80;0.80;;;;;;;;;;4994082;28;20583;-74
2023/08/01 12:18:01;;;;;;;0.50;0.50;;;;;;;;;;4994241;28;20210;-74
2023/08/01 12:20:28;;;;;;;0.52;0.52;;;;;;;;;;4994376;28;20194;-74
2023/08/01 12:22:55;;;;;;;0.90;0.90;;;;;;;;;;4994094;28;20213;-74
2023/08/01 12:25:22;;;;;;;0.70;0.70;;;;;;;;;;4994047;28;20206;-74
2023/08/01 12:27:49;;;;;;;0.70;0.70;;;;;;;;;;4994204;28;20198;-74
2023/08/01 12:30:16;;;;;;;0.52;0.52;;;;;;;;;;4994122;28;20226;-74
2023/08/01 12:32:44;;;;;;;0.40;0.40;;;;;;;;;;4994511;28;20186;-73
2023/08/01 12:35:12;;;;;;;0.55;0.55;;;;;;;;;;4994702;28;20206;-73
2023/08/01 12:37:39;;;;;;;0.55;0.55;;;;;;;;;;5011519;28;20610;-73
2023/08/01 12:40:07;;;;;;;0.50;0.50;;;;;;;;;;5006330;28;20557;-72
2023/08/01 12:42:34;;;;;;;0.60;0.60;;;;;;;;;;5001209;28;20206;-72
2023/08/01 12:45:01;;;;;;;0.55;0.45;;;;;;;;;;4994131;28;20190;-73
2023/08/01 12:47:28;;;;;;;0.70;0.55;;;;;;;;;;4993941;28;20217;-73
2023/08/01 12:49:57;;;;;;;0.73;0.50;;;;;;;;;;4993738;28;20222;-73
2023/08/01 12:52:24;;;;;;;0.40;0.40;;;;;;;;;;4993619;28;20222;-74
2023/08/01 12:54:51;;;;;;;0.50;0.50;;;;;;;;;;4993391;28;20238;-73
2023/08/01 12:57:19;;;;;;;0.40;0.40;;;;;;;;;;4993813;28;20209;-73
2023/08/01 12:59:46;;;;;;;0.60;0.52;;;;;;;;;;4993766;28;20222;-73
2023/08/01 13:02:13;;;;;;;0.45;0.45;;;;;;;;;;4995336;28;20205;-74
2023/08/01 13:04:40;;;;;;;0.47;0.47;;;;;;;;;;4997199;28;20202;-73
2023/08/01 13:07:08;;;;;;;1.00;0.32;;;;;;;;;;4997098;28;20209;-73
2023/08/01 13:09:35;;;;;;;0.47;0.40;;;;;;;;;;4996903;28;20229;-73
2023/08/01 13:12:03;;;;;;;1.88;0.40;;;;;;;;;;4997107;28;20210;-73
2023/08/01 13:14:30;;;;;;;0.55;0.55;;;;;;;;;;4997421;28;20241;-73
2023/08/01 13:16:58;;;;;;;0.35;0.35;;;;;;;;;;4997340;28;20202;-73
2023/08/01 13:19:25;;;;;;;0.40;0.40;;;;;;;;;;4997482;28;20245;-73
2023/08/01 13:21:52;;;;;;;0.40;0.40;;;;;;;;;;4997247;28;20202;-73
2023/08/01 13:24:20;;;;;;;0.50;0.50;;;;;;;;;;4996540;28;20569;-73
2023/08/01 13:26:47;;;;;;;0.40;0.40;;;;;;;;;;4996844;28;20209;-73
2023/08/01 13:29:15;;;;;;;0.50;0.50;;;;;;;;;;4996581;28;20234;-73
2023/08/01 13:31:42;;;;;;;1.00;0.50;;;;;;;;;;4996705;28;20218;-73
2023/08/01 13:34:09;;;;;;;0.40;0.40;;;;;;;;;;4996271;28;20195;-73
2023/08/01 13:36:36;;;;;;;0.60;0.60;;;;;;;;;;4996622;28;20205;-73
2023/08/01 13:39:03;;;;;;;0.70;0.50;;;;;;;;;;4996426;28;20226;-73
2023/08/01 13:41:33;;;;;;;0.40;0.40;;;;;;;;;;4997524;28;20182;-73
2023/08/01 13:44:00;;;;;;;0.50;0.50;;;;;;;;;;4998543;28;20206;-73
2023/08/01 13:46:27;;;;;;;2.38;0.52;;;;;;;;;;4998453;28;20202;-73
2023/08/01 13:48:54;;;;;;;0.45;0.45;;;;;;;;;;4996426;28;20503;-73
2023/08/01 13:51:21;;;;;;;0.35;0.35;;;;;;;;;;4996057;28;20221;-73
2023/08/01 13:53:48;;;;;;;0.50;0.50;;;;;;;;;;4996775;28;20206;-73
2023/08/01 13:56:15;;;;;;;0.63;0.60;;;;;;;;;;4996741;28;20711;-73
2023/08/01 13:58:44;;;;;;;0.60;0.60;;;;;;;;;;4996969;28;20744;-74
2023/08/01 14:01:11;;;;;;;0.70;0.70;;;;;;;;;;4997095;28;20558;-73
2023/08/01 14:03:39;;;;;;;0.55;0.55;;;;;;;;;;4997005;28;20209;-74
2023/08/01 14:06:07;;;;;;;0.40;0.40;;;;;;;;;;4996942;28;20212;-73
2023/08/01 14:08:34;;;;;;;0.40;0.40;;;;;;;;;;4996516;28;20315;-73
2023/08/01 14:11:02;;;;;;;0.50;0.50;;;;;;;;;;4996315;28;20225;-73
2023/08/01 14:13:30;;;;;;;0.50;0.50;;;;;;;;;;4997413;28;20210;-73
2023/08/01 14:15:58;;;;;;;0.40;0.40;;;;;;;;;;4996425;28;20665;-73
2023/08/01 14:18:25;;;;;;;0.40;0.40;;;;;;;;;;4996007;28;20390;-74
2023/08/01 14:20:53;;;;;;;0.45;0.45;;;;;;;;;;4996495;28;20202;-74
2023/08/01 14:23:20;;;;;;;0.20;0.20;;;;;;;;;;4996363;28;20662;-73
2023/08/01 14:25:47;;;;;;;0.30;0.30;;;;;;;;;;4996372;28;20257;-72
2023/08/01 14:28:14;;;;;;;0.40;0.40;;;;;;;;;;4996037;28;20219;-73
2023/08/01 14:30:42;;;;;;;0.40;0.40;;;;;;;;;;4995958;28;20670;-73
2023/08/01 14:33:10;;;;;;;0.38;0.38;;;;;;;;;;4995926;28;20582;-72
2023/08/01 14:35:38;;;;;;;0.38;0.38;;;;;;;;;;4995897;28;20206;-75
2023/08/01 14:38:05;;;;;;;0.60;0.60;;;;;;;;;;4995456;28;20202;-73
2023/08/01 14:40:34;;;;;;;0.28;0.28;;;;;;;;;;5006607;28;20209;-73
2023/08/01 14:43:01;;;;;;;0.28;0.28;;;;;;;;;;5017215;28;20229;-73
2023/08/01 14:45:28;;;;;;;0.30;0.30;;;;;;;;;;5012970;28;20237;-73
2023/08/01 14:47:55;;;;;;;0.30;0.30;;;;;;;;;;4995157;28;20206;-73
2023/08/01 14:50:23;;;;;;;0.40;0.40;;;;;;;;;;4995178;28;20237;-75
2023/08/01 14:52:50;;;;;;;0.65;0.65;;;;;;;;;;4995025;28;20727;-75
2023/08/01 14:55:17;;;;;;;0.50;0.50;;;;;;;;;;4995205;28;20680;-76
2023/08/01 14:57:44;;;;;;;0.40;0.40;;;;;;;;;;4995138;28;20198;-76
2023/08/01 15:00:12;;;;;;;0.40;0.40;;;;;;;;;;4995053;28;20225;-76
2023/08/01 15:02:39;;;;;;;0.47;0.47;;;;;;;;;;4994765;28;20205;-75
2023/08/01 15:05:07;;;;;;;0.40;0.40;;;;;;;;;;4995309;28;20199;-75
2023/08/01 15:07:35;;;;;;;0.50;0.50;;;;;;;;;;4994835;28;20202;-75
2023/08/01 15:10:02;;;;;;;0.40;0.40;;;;;;;;;;4994921;28;20222;-74
2023/08/01 15:12:29;;;;;;;0.43;0.43;;;;;;;;;;4994800;28;20219;-74
2023/08/01 15:14:56;;;;;;;0.35;0.35;;;;;;;;;;4995007;28;20206;-75
2023/08/01 15:17:23;;;;;;;0.55;0.40;;;;;;;;;;4994830;28;20209;-75
2023/08/01 15:19:51;;;;;;;0.60;0.60;;;;;;;;;;4994605;28;20218;-75
2023/08/01 15:22:18;;;;;;;0.50;0.50;;;;;;;;;;4994629;28;20194;-75
2023/08/01 15:24:47;;;;;;;0.40;0.40;;;;;;;;;;4994296;28;20190;-74
2023/08/01 15:27:15;;;;;;;0.50;0.50;;;;;;;;;;4994693;28;20260;-74
2023/08/01 15:29:42;;;;;;;0.55;0.55;;;;;;;;;;4994475;28;20226;-74
2023/08/01 15:32:09;;;;;;;0.60;0.60;;;;;;;;;;4994151;28;20225;-75
2023/08/01 15:34:36;;;;;;;0.77;0.50;;;;;;;;;;4994782;28;20213;-75
2023/08/01 15:37:03;;;;;;;0.50;0.50;;;;;;;;;;4994422;28;20198;-74
2023/08/01 15:39:30;;;;;;;0.50;0.50;;;;;;;;;;4994413;28;20229;-73
2023/08/01 15:41:58;;;;;;;0.60;0.60;;;;;;;;;;4994291;28;20198;-73
2023/08/01 15:44:26;;;;;;;0.45;0.45;;;;;;;;;;4994575;28;20214;-73
2023/08/01 15:46:53;;;;;;;0.65;0.40;;;;;;;;;;4994359;28;20202;-72
2023/08/01 15:49:20;;;;;;;0.57;0.57;;;;;;;;;;4994011;28;20229;-72
2023/08/01 15:51:47;;;;;;;0.50;0.50;;;;;;;;;;4993783;28;20222;-72
2023/08/01 15:54:14;;;;;;;0.47;0.47;;;;;;;;;;4994508;28;20210;-72
2023/08/01 15:56:41;;;;;;;0.75;0.63;;;;;;;;;;4994070;28;20206;-73
2023/08/01 15:59:10;;;;;;;0.40;0.40;;;;;;;;;;4993852;28;20222;-73
2023/08/01 16:01:37;;;;;;;0.55;0.55;;;;;;;;;;4993728;28;20661;-73
2023/08/01 16:04:04;;;;;;;0.60;0.60;;;;;;;;;;4994247;28;20206;-74
2023/08/01 16:06:31;;;;;;;0.52;0.45;;;;;;;;;;4994533;28;20214;-75
2023/08/01 16:08:58;;;;;;;0.55;0.55;;;;;;;;;;4994197;28;20732;-75
2023/08/01 16:11:25;;;;;;;0.50;0.50;;;;;;;;;;4994563;28;20213;-74
2023/08/01 16:13:52;;;;;;;1.85;0.70;;;;;;;;;;4994370;28;20198;-74
2023/08/01 16:16:21;;;;;;;0.80;0.80;;;;;;;;;;4994286;28;20213;-74
2023/08/01 16:18:48;;;;;;;0.70;0.70;;;;;;;;;;4994291;28;20222;-75
2023/08/01 16:21:15;;;;;;;0.65;0.65;;;;;;;;;;4994513;28;20549;-75
2023/08/01 16:23:42;;;;;;;0.40;0.40;;;;;;;;;;4994522;28;20202;-76
2023/08/01 16:26:09;;;;;;;0.50;0.50;;;;;;;;;;4993985;28;20234;-75
2023/08/01 16:28:36;;;;;;;0.52;0.52;;;;;;;;;;4994028;28;20222;-76
2023/08/01 16:31:06;;;;;;;0.52;0.52;;;;;;;;;;4994262;28;20213;-76
2023/08/01 16:33:34;;;;;;;0.40;0.40;;;;;;;;;;4993531;28;20221;-76
2023/08/01 16:36:01;;;;;;;0.80;0.55;;;;;;;;;;4994897;28;20666;-76
2023/08/01 16:38:28;;;;;;;1.77;0.50;;;;;;;;;;4997581;28;20218;-76
2023/08/01 16:40:55;;;;;;;0.43;0.43;;;;;;;;;;4997557;28;20202;-75
2023/08/01 16:43:22;;;;;;;0.60;0.60;;;;;;;;;;4997562;28;20265;-75
2023/08/01 16:45:49;;;;;;;0.60;0.60;;;;;;;;;;4997457;28;20206;-75
2023/08/01 16:48:16;;;;;;;0.50;0.50;;;;;;;;;;4997574;28;20206;-76
2023/08/01 16:50:45;;;;;;;0.52;0.52;;;;;;;;;;4997486;28;20217;-76
2023/08/01 16:53:12;;;;;;;0.93;0.60;;;;;;;;;;4997626;28;20206;-76
2023/08/01 16:55:39;;;;;;;0.60;0.60;;;;;;;;;;4997772;28;20213;-77
2023/08/01 16:58:06;;;;;;;0.90;0.90;;;;;;;;;;4997042;28;20626;-77
2023/08/01 17:00:33;;;;;;;0.50;0.50;;;;;;;;;;4997292;28;20206;-75
2023/08/01 17:03:00;;;;;;;0.50;0.50;;;;;;;;;;4997019;28;20194;-76
2023/08/01 17:05:27;;;;;;;0.82;0.82;;;;;;;;;;4997548;28;20218;-75
2023/08/01 17:07:56;;;;;;;0.70;0.70;;;;;;;;;;4997144;28;20206;-76
2023/08/01 17:10:24;;;;;;;0.60;0.60;;;;;;;;;;4997936;28;20229;-76
2023/08/01 17:12:51;;;;;;;0.60;0.60;;;;;;;;;;4996950;28;20562;-76
2023/08/01 17:15:18;;;;;;;1.27;0.52;;;;;;;;;;4996879;28;20546;-77
2023/08/01 17:17:46;;;;;;;0.50;0.50;;;;;;;;;;4997272;28;20209;-76
2023/08/01 17:20:13;;;;;;;0.60;0.60;;;;;;;;;;4996990;28;20230;-75
2023/08/01 17:22:40;;;;;;;0.70;0.70;;;;;;;;;;4999890;28;20198;-76
2023/08/01 17:25:09;;;;;;;0.50;0.50;;;;;;;;;;5004356;28;20213;-75
2023/08/01 17:27:36;;;;;;;0.52;0.52;;;;;;;;;;4998052;28;20388;-74
2023/08/01 17:30:04;;;;;;;0.63;0.63;;;;;;;;;;4996690;28;20218;-72
2023/08/01 17:32:31;;;;;;;0.50;0.50;;;;;;;;;;4996038;28;20697;-72
2023/08/01 17:34:58;;;;;;;0.50;0.50;;;;;;;;;;4996370;28;20654;-72
2023/08/01 17:37:25;;;;;;;0.50;0.50;;;;;;;;;;4996588;28;20209;-73
2023/08/01 17:39:52;;;;;;;0.60;0.60;;;;;;;;;;4996140;28;20724;-73
2023/08/01 17:42:21;;;;;;;0.60;0.60;;;;;;;;;;4997122;28;20194;-75
2023/08/01 17:44:48;;;;;;;0.80;0.80;;;;;;;;;;4996516;28;20201;-74
2023/08/01 17:47:15;;;;;;;0.47;0.47;;;;;;;;;;4996018;28;20742;-74
2023/08/01 17:49:43;;;;;;;0.70;0.70;;;;;;;;;;4996467;28;20230;-74
2023/08/01 17:52:10;;;;;;;0.70;0.70;;;;;;;;;;4996425;28;20284;-73
2023/08/01 17:54:38;;;;;;;0.60;0.60;;;;;;;;;;4996451;28;20217;-73
2023/08/01 17:57:05;;;;;;;0.70;0.70;;;;;;;;;;4997189;28;20222;-75
2023/08/01 17:59:35;;;;;;;0.52;0.52;;;;;;;;;;4997434;28;20225;-72
2023/08/01 18:02:05;;;;;;;0.70;0.70;;;;;;;;;;4996802;28;20279;-73
2023/08/01 18:04:32;;;;;;;0.93;0.93;;;;;;;;;;4996251;28;20205;-72
2023/08/01 18:06:59;;;;;;;0.80;0.80;;;;;;;;;;4996567;28;20201;-73
2023/08/01 18:09:26;;;;;;;0.80;0.80;;;;;;;;;;4995794;28;20226;-72
2023/08/01 18:11:54;;;;;;;0.82;0.82;;;;;;;;;;4995478;28;20210;-72
2023/08/01 18:14:21;;;;;;;0.80;0.80;;;;;;;;;;4995430;28;20685;-72
2023/08/01 18:16:49;;;;;;;0.82;0.82;;;;;;;;;;4996032;28;20212;-72
2023/08/01 18:19:16;;;;;;;1.40;0.90;;;;;;;;;;4995741;28;20230;-73
2023/08/01 18:21:43;;;;;;;0.63;0.63;;;;;;;;;;4995543;28;20547;-73
2023/08/01 18:24:10;;;;;;;0.70;0.70;;;;;;;;;;4995510;28;20670;-73
2023/08/01 18:26:38;;;;;;;0.95;0.95;;;;;;;;;;4995344;28;20693;-73
2023/08/01 18:29:06;;;;;;;0.80;0.80;;;;;;;;;;4995549;28;20309;-73
2023/08/01 18:31:33;;;;;;;0.80;0.80;;;;;;;;;;4995642;28;20202;-72
2023/08/01 18:34:01;;;;;;;0.80;0.80;;;;;;;;;;4995017;28;20313;-72
2023/08/01 18:36:29;;;;;;;0.80;0.80;;;;;;;;;;4995139;28;20701;-73
2023/08/01 18:38:57;;;;;;;0.77;0.77;;;;;;;;;;4995468;28;20302;-73
2023/08/01 18:41:24;;;;;;;0.60;0.60;;;;;;;;;;4995494;28;20210;-73
2023/08/01 18:43:52;;;;;;;0.80;0.80;;;;;;;;;;4994954;28;20666;-73
2023/08/01 18:46:21;;;;;;;0.70;0.70;;;;;;;;;;4995294;28;20210;-73
2023/08/01 18:48:48;;;;;;;0.70;0.70;;;;;;;;;;4995263;28;20230;-73
2023/08/01 18:51:18;;;;;;;0.80;0.80;;;;;;;;;;4995231;28;20218;-72
2023/08/01 18:53:45;;;;;;;0.63;0.63;;;;;;;;;;4994915;28;20671;-72
2023/08/01 18:56:13;;;;;;;0.70;0.70;;;;;;;;;;4995123;28;20214;-72
2023/08/01 18:58:40;;;;;;;0.93;0.93;;;;;;;;;;4994685;28;20226;-72
2023/08/01 19:01:15;;;;;;;0.70;0.70;;;;;;;;;;4994661;28;20213;-73
2023/08/01 19:03:42;;;;;;;0.80;0.80;;;;;;;;;;4995189;28;20236;-74
2023/08/01 19:06:09;;;;;;;0.70;0.70;;;;;;;;;;4995000;28;20253;-75
2023/08/01 19:08:38;;;;;;;0.68;0.68;;;;;;;;;;4994989;28;20233;-74
2023/08/01 19:11:05;;;;;;;0.75;0.75;;;;;;;;;;4994947;28;20207;-74
2023/08/01 19:13:32;;;;;;;0.60;0.60;;;;;;;;;;4995069;28;20223;-75
2023/08/01 19:16:00;;;;;;;0.70;0.70;;;;;;;;;;4994734;28;20203;-75
2023/08/01 19:18:28;;;;;;;0.80;0.80;;;;;;;;;;4994850;28;20227;-75
2023/08/01 19:20:55;;;;;;;0.82;0.82;;;;;;;;;;4994933;28;20246;-74
2023/08/01 19:23:22;;;;;;;0.80;0.80;;;;;;;;;;4994911;28;20203;-74
2023/08/01 19:25:51;;;;;;;1.02;1.02;;;;;;;;;;4994522;28;20222;-74
2023/08/01 19:28:19;;;;;;;0.88;0.88;;;;;;;;;;4994288;28;20210;-74
2023/08/01 19:30:46;;;;;;;0.77;0.77;;;;;;;;;;4994778;28;20301;-74
2023/08/01 19:33:13;;;;;;;1.10;1.00;;;;;;;;;;4994722;28;20227;-75
2023/08/01 19:35:41;;;;;;;0.95;0.95;;;;;;;;;;4994652;28;20201;-75